Time;durP1;ratioP1;P1;durP2;ratioP2;P2;SDS_P1;SDS_P2;PMS_P1;PMS_P2;Temp;Humidity;BMP_temperature;BMP_pressure;BME280_temperature;BME280_humidity;BME280_pressure;Samples;Min_cycle;Max_cycle;Signal;HPM_P1;HPM_P2
2023/07/30 00:01:39;;;;;;;12.18;10.05;;;;;;;;;;4935903;29;20108;-72
2023/07/30 00:04:05;;;;;;;13.98;10.93;;;;;;;;;;4935620;29;20050;-71
2023/07/30 00:06:31;;;;;;;20.75;11.88;;;;;;;;;;4935643;29;20040;-72
2023/07/30 00:08:57;;;;;;;16.67;11.63;;;;;;;;;;4934129;29;20046;-73
2023/07/30 00:11:23;;;;;;;12.05;10.88;;;;;;;;;;4934361;29;20039;-71
2023/07/30 00:13:49;;;;;;;10.35;9.35;;;;;;;;;;4935578;29;20036;-72
2023/07/30 00:16:15;;;;;;;10.27;9.32;;;;;;;;;;4934109;29;20446;-73
2023/07/30 00:18:42;;;;;;;11.85;9.18;;;;;;;;;;4935433;29;20507;-72
2023/07/30 00:21:08;;;;;;;11.45;9.07;;;;;;;;;;4935292;29;20523;-72
2023/07/30 00:23:34;;;;;;;14.40;9.05;;;;;;;;;;4934193;29;20136;-72
2023/07/30 00:26:00;;;;;;;9.43;8.30;;;;;;;;;;4934033;29;20517;-71
2023/07/30 00:28:25;;;;;;;9.07;8.20;;;;;;;;;;4935265;29;20044;-72
2023/07/30 00:30:51;;;;;;;9.70;8.45;;;;;;;;;;4935143;29;20071;-72
2023/07/30 00:33:18;;;;;;;10.70;9.32;;;;;;;;;;4935815;29;20046;-72
2023/07/30 00:35:44;;;;;;;16.70;11.05;;;;;;;;;;4934119;29;20039;-73
2023/07/30 00:38:10;;;;;;;15.63;12.48;;;;;;;;;;4935972;29;20039;-73
2023/07/30 00:40:42;;;;;;;12.73;10.95;;;;;;;;;;4935727;29;20471;-71
2023/07/30 00:43:08;;;;;;;10.25;8.98;;;;;;;;;;4936095;29;20039;-71
2023/07/30 00:45:34;;;;;;;10.85;9.70;;;;;;;;;;4936280;29;20536;-71
2023/07/30 00:48:00;;;;;;;14.80;10.15;;;;;;;;;;4934855;29;20070;-72
2023/07/30 00:50:26;;;;;;;12.52;10.40;;;;;;;;;;4936248;29;20090;-71
2023/07/30 00:52:52;;;;;;;12.73;10.50;;;;;;;;;;4937851;29;20067;-71
2023/07/30 00:55:18;;;;;;;12.55;10.07;;;;;;;;;;4935762;29;20399;-71
2023/07/30 00:57:46;;;;;;;11.25;10.25;;;;;;;;;;4950765;29;20083;-72
2023/07/30 01:00:12;;;;;;;14.30;10.57;;;;;;;;;;4935941;29;20106;-72
2023/07/30 01:02:38;;;;;;;15.35;11.13;;;;;;;;;;4935969;29;20118;-72
2023/07/30 01:05:04;;;;;;;12.27;10.95;;;;;;;;;;4935250;29;20503;-72
2023/07/30 01:07:31;;;;;;;17.80;10.07;;;;;;;;;;4935866;29;20582;-72
2023/07/30 01:09:57;;;;;;;15.00;11.20;;;;;;;;;;4933647;29;20048;-72
2023/07/30 01:12:23;;;;;;;15.07;11.52;;;;;;;;;;4933966;29;20162;-72
2023/07/30 01:14:49;;;;;;;13.43;11.15;;;;;;;;;;4933752;29;20532;-73
2023/07/30 01:17:15;;;;;;;17.42;12.30;;;;;;;;;;4934322;29;20035;-72
2023/07/30 01:19:41;;;;;;;17.27;13.15;;;;;;;;;;4936555;29;20410;-72
2023/07/30 01:22:07;;;;;;;19.00;13.55;;;;;;;;;;4936258;29;20697;-71
2023/07/30 01:24:33;;;;;;;18.17;12.45;;;;;;;;;;4934073;29;20032;-72
2023/07/30 01:27:01;;;;;;;23.65;13.68;;;;;;;;;;4934724;29;20554;-72
2023/07/30 01:29:47;;;;;;;16.83;12.82;;;;;;;;;;4934361;29;20049;-71
2023/07/30 01:32:13;;;;;;;25.05;14.43;;;;;;;;;;4932924;29;20079;-72
2023/07/30 01:34:40;;;;;;;19.67;13.55;;;;;;;;;;4934198;29;20530;-72
2023/07/30 01:37:06;;;;;;;23.15;15.13;;;;;;;;;;4933217;29;20418;-73
2023/07/30 01:39:32;;;;;;;19.20;13.77;;;;;;;;;;4934332;29;20043;-72
2023/07/30 01:41:58;;;;;;;20.35;13.57;;;;;;;;;;4932735;29;20036;-73
2023/07/30 01:44:24;;;;;;;20.88;14.15;;;;;;;;;;4933962;29;20055;-72
2023/07/30 01:46:49;;;;;;;23.02;14.50;;;;;;;;;;4933932;29;20034;-72
2023/07/30 01:49:15;;;;;;;24.15;14.38;;;;;;;;;;4933556;29;20522;-73
2023/07/30 01:51:41;;;;;;;26.38;15.80;;;;;;;;;;4933494;29;20040;-71
2023/07/30 01:54:07;;;;;;;24.10;15.32;;;;;;;;;;4948041;29;20039;-73
2023/07/30 01:56:33;;;;;;;25.00;15.88;;;;;;;;;;4933661;29;20051;-73
2023/07/30 01:59:00;;;;;;;23.63;15.60;;;;;;;;;;4933497;29;20036;-73
2023/07/30 02:01:26;;;;;;;21.25;15.32;;;;;;;;;;4948457;29;20071;-72
2023/07/30 02:03:52;;;;;;;15.93;13.13;;;;;;;;;;4933400;29;20462;-73
2023/07/30 02:06:18;;;;;;;21.48;13.80;;;;;;;;;;4934985;29;20090;-72
2023/07/30 02:08:45;;;;;;;21.88;14.27;;;;;;;;;;4934842;29;20067;-73
2023/07/30 02:11:11;;;;;;;18.10;14.07;;;;;;;;;;4933386;29;20059;-72
2023/07/30 02:13:37;;;;;;;16.67;13.80;;;;;;;;;;4935563;29;20035;-72
2023/07/30 02:16:03;;;;;;;23.10;13.93;;;;;;;;;;4949536;29;20046;-71
2023/07/30 02:18:29;;;;;;;18.10;13.15;;;;;;;;;;4935457;29;20134;-70
2023/07/30 02:20:55;;;;;;;16.70;13.07;;;;;;;;;;4935826;29;20040;-71
2023/07/30 02:23:21;;;;;;;23.00;12.43;;;;;;;;;;4949831;29;20050;-73
2023/07/30 02:25:47;;;;;;;17.40;12.45;;;;;;;;;;4949676;29;20030;-74
2023/07/30 02:28:13;;;;;;;13.98;11.82;;;;;;;;;;4932787;29;20045;-74
2023/07/30 02:30:39;;;;;;;12.95;11.85;;;;;;;;;;4948042;29;20086;-73
2023/07/30 02:33:05;;;;;;;16.08;12.40;;;;;;;;;;4931963;29;20081;-71
2023/07/30 02:35:31;;;;;;;17.00;11.20;;;;;;;;;;4931897;29;20035;-72
2023/07/30 02:37:58;;;;;;;12.27;10.50;;;;;;;;;;4932646;29;20043;-72
2023/07/30 02:40:24;;;;;;;11.57;10.30;;;;;;;;;;4932848;29;20503;-72
2023/07/30 02:42:50;;;;;;;11.27;10.00;;;;;;;;;;4932808;29;20226;-72
2023/07/30 02:45:16;;;;;;;17.13;10.32;;;;;;;;;;4948424;29;20074;-72
2023/07/30 02:47:42;;;;;;;15.85;9.38;;;;;;;;;;4948461;29;20039;-70
2023/07/30 02:50:08;;;;;;;9.45;8.55;;;;;;;;;;4933315;29;20051;-72
2023/07/30 02:52:34;;;;;;;10.35;8.50;;;;;;;;;;4932998;29;20036;-71
2023/07/30 02:55:00;;;;;;;9.38;8.52;;;;;;;;;;4932737;29;20046;-72
2023/07/30 02:57:27;;;;;;;9.25;8.45;;;;;;;;;;4931645;29;20577;-71
2023/07/30 02:59:53;;;;;;;8.55;7.85;;;;;;;;;;4931651;29;20069;-70
2023/07/30 03:02:19;;;;;;;9.27;8.20;;;;;;;;;;4947723;29;20549;-71
2023/07/30 03:04:45;;;;;;;8.95;8.23;;;;;;;;;;4933363;29;20090;-71
2023/07/30 03:07:11;;;;;;;9.15;8.32;;;;;;;;;;4951394;29;20051;-73
2023/07/30 03:09:37;;;;;;;9.98;8.88;;;;;;;;;;4936577;29;20079;-72
2023/07/30 03:12:03;;;;;;;9.93;8.73;;;;;;;;;;4936469;29;20039;-72
2023/07/30 03:14:29;;;;;;;9.45;8.40;;;;;;;;;;4936528;29;20083;-73
2023/07/30 03:16:56;;;;;;;10.57;8.07;;;;;;;;;;4935386;29;20060;-72
2023/07/30 03:19:22;;;;;;;8.90;8.10;;;;;;;;;;4935087;29;20112;-71
2023/07/30 03:21:48;;;;;;;7.57;6.97;;;;;;;;;;4936636;29;20511;-71
2023/07/30 03:24:14;;;;;;;9.60;7.20;;;;;;;;;;4936249;29;20099;-72
2023/07/30 03:26:40;;;;;;;7.75;6.30;;;;;;;;;;4935322;29;20059;-73
2023/07/30 03:29:06;;;;;;;7.15;6.18;;;;;;;;;;4936083;29;20123;-71
2023/07/30 03:31:32;;;;;;;7.63;6.85;;;;;;;;;;4936523;29;20518;-72
2023/07/30 03:33:59;;;;;;;8.70;6.20;;;;;;;;;;4936459;29;20039;-72
2023/07/30 03:36:25;;;;;;;8.82;6.45;;;;;;;;;;4934855;29;20102;-72
2023/07/30 03:38:51;;;;;;;6.80;6.20;;;;;;;;;;4951004;29;20122;-72
2023/07/30 03:41:17;;;;;;;7.05;6.43;;;;;;;;;;4936308;29;20243;-72
2023/07/30 03:43:43;;;;;;;7.55;6.75;;;;;;;;;;4935969;29;20568;-72
2023/07/30 03:46:09;;;;;;;6.90;6.30;;;;;;;;;;4935170;29;20085;-71
2023/07/30 03:48:35;;;;;;;7.25;6.60;;;;;;;;;;4936245;29;20118;-72
2023/07/30 03:51:02;;;;;;;7.85;6.93;;;;;;;;;;4935938;29;20494;-71
2023/07/30 03:53:28;;;;;;;6.95;6.38;;;;;;;;;;4935670;29;20092;-72
2023/07/30 03:55:55;;;;;;;7.65;6.82;;;;;;;;;;4934435;29;20410;-73
2023/07/30 03:58:21;;;;;;;7.05;6.40;;;;;;;;;;4935594;29;20055;-72
2023/07/30 04:00:47;;;;;;;6.65;6.00;;;;;;;;;;4935878;29;20055;-72
2023/07/30 04:03:13;;;;;;;7.28;6.07;;;;;;;;;;4935579;29;20028;-72
2023/07/30 04:05:39;;;;;;;6.95;6.25;;;;;;;;;;4936653;29;20035;-72
2023/07/30 04:08:05;;;;;;;7.43;6.72;;;;;;;;;;4935878;29;20091;-74
2023/07/30 04:10:31;;;;;;;8.75;6.20;;;;;;;;;;4950319;29;20047;-73
2023/07/30 04:12:58;;;;;;;7.75;6.10;;;;;;;;;;4935677;29;20047;-72
2023/07/30 04:15:23;;;;;;;7.85;6.05;;;;;;;;;;4935192;29;20126;-72
2023/07/30 04:17:50;;;;;;;6.22;5.68;;;;;;;;;;4935789;29;20537;-73
2023/07/30 04:20:17;;;;;;;6.78;5.82;;;;;;;;;;4935387;29;20047;-74
2023/07/30 04:22:43;;;;;;;6.43;5.93;;;;;;;;;;4935872;29;20039;-72
2023/07/30 04:25:10;;;;;;;9.07;5.90;;;;;;;;;;4937376;29;20507;-73
2023/07/30 04:27:36;;;;;;;5.88;5.45;;;;;;;;;;4936236;29;20490;-73
2023/07/30 04:30:03;;;;;;;6.57;5.05;;;;;;;;;;4939304;29;20045;-73
2023/07/30 04:32:30;;;;;;;8.18;5.22;;;;;;;;;;4925372;29;20181;-72
2023/07/30 04:34:56;;;;;;;5.53;5.00;;;;;;;;;;4923971;29;20043;-72
2023/07/30 04:37:22;;;;;;;6.40;5.50;;;;;;;;;;4923555;29;20064;-72
2023/07/30 04:39:49;;;;;;;6.75;5.00;;;;;;;;;;4908009;29;20032;-72
2023/07/30 04:42:15;;;;;;;6.47;5.05;;;;;;;;;;4939042;29;20565;-73
2023/07/30 04:44:42;;;;;;;5.88;5.38;;;;;;;;;;4927459;29;20059;-73
2023/07/30 04:47:12;;;;;;;5.50;5.10;;;;;;;;;;4924204;29;20044;-73
2023/07/30 04:49:40;;;;;;;5.20;4.70;;;;;;;;;;4937382;29;20044;-74
2023/07/30 04:52:07;;;;;;;5.85;4.40;;;;;;;;;;4925850;29;20474;-73
2023/07/30 04:54:33;;;;;;;5.35;4.90;;;;;;;;;;4923298;29;20039;-74
2023/07/30 04:56:59;;;;;;;5.22;4.72;;;;;;;;;;4944838;29;20437;-74
2023/07/30 04:59:25;;;;;;;11.02;4.60;;;;;;;;;;4953582;29;20122;-74
2023/07/30 05:01:52;;;;;;;7.88;4.80;;;;;;;;;;4945897;28;20034;-73
2023/07/30 05:04:19;;;;;;;5.53;4.47;;;;;;;;;;4948191;29;20498;-74
2023/07/30 05:06:45;;;;;;;5.97;4.55;;;;;;;;;;4953682;29;20051;-74
2023/07/30 05:09:12;;;;;;;8.50;4.72;;;;;;;;;;4953589;28;20031;-73
2023/07/30 05:11:38;;;;;;;4.63;3.92;;;;;;;;;;4953649;29;20477;-74
2023/07/30 05:14:04;;;;;;;4.57;4.18;;;;;;;;;;4952490;29;20465;-73
2023/07/30 05:16:30;;;;;;;10.95;4.00;;;;;;;;;;4953244;28;20134;-74
2023/07/30 05:18:56;;;;;;;6.13;4.50;;;;;;;;;;4953645;28;20114;-72
2023/07/30 05:21:22;;;;;;;5.50;3.85;;;;;;;;;;4953245;28;20094;-71
2023/07/30 05:23:48;;;;;;;6.35;4.85;;;;;;;;;;4952236;29;20035;-72
2023/07/30 05:26:14;;;;;;;7.30;4.18;;;;;;;;;;4950663;28;20046;-74
2023/07/30 05:28:40;;;;;;;6.13;4.25;;;;;;;;;;4928100;29;20123;-72
2023/07/30 05:31:06;;;;;;;8.95;4.00;;;;;;;;;;4951748;29;20065;-70
2023/07/30 05:33:32;;;;;;;4.25;3.80;;;;;;;;;;4943763;29;20082;-72
2023/07/30 05:35:58;;;;;;;4.15;3.85;;;;;;;;;;4934546;29;20051;-73
2023/07/30 05:38:24;;;;;;;4.57;4.10;;;;;;;;;;4943937;29;20027;-73
2023/07/30 05:40:50;;;;;;;7.35;3.65;;;;;;;;;;4941203;29;20406;-73
2023/07/30 05:43:16;;;;;;;8.48;4.25;;;;;;;;;;4932825;29;20039;-74
2023/07/30 05:45:42;;;;;;;4.32;3.92;;;;;;;;;;4933226;29;20069;-75
2023/07/30 05:48:09;;;;;;;4.20;3.90;;;;;;;;;;4953216;28;20039;-73
2023/07/30 05:50:35;;;;;;;7.70;3.97;;;;;;;;;;4949306;29;20051;-74
2023/07/30 05:53:01;;;;;;;4.55;3.80;;;;;;;;;;4952876;28;20054;-71
2023/07/30 05:55:27;;;;;;;6.97;4.20;;;;;;;;;;4941949;29;20035;-69
2023/07/30 05:57:53;;;;;;;3.95;3.30;;;;;;;;;;4936529;29;20062;-70
2023/07/30 06:00:19;;;;;;;3.97;3.67;;;;;;;;;;4922904;29;20054;-71
2023/07/30 06:02:45;;;;;;;5.47;4.53;;;;;;;;;;4923281;29;20039;-70
2023/07/30 06:05:11;;;;;;;4.10;3.75;;;;;;;;;;4923026;29;20039;-70
2023/07/30 06:07:37;;;;;;;5.25;3.97;;;;;;;;;;4923524;29;20024;-69
2023/07/30 06:10:03;;;;;;;5.57;4.63;;;;;;;;;;4929842;29;20075;-70
2023/07/30 06:12:31;;;;;;;5.50;5.10;;;;;;;;;;4952509;28;20038;-72
2023/07/30 06:14:57;;;;;;;7.18;4.20;;;;;;;;;;4952833;28;20039;-77
2023/07/30 06:17:24;;;;;;;4.65;4.07;;;;;;;;;;4930243;29;20079;-74
2023/07/30 06:19:50;;;;;;;6.15;3.65;;;;;;;;;;4933057;29;20036;-75
2023/07/30 06:22:16;;;;;;;4.25;3.42;;;;;;;;;;4932787;29;20038;-77
2023/07/30 06:24:42;;;;;;;5.65;3.35;;;;;;;;;;4932928;29;20174;-74
2023/07/30 06:27:09;;;;;;;4.55;3.22;;;;;;;;;;4932825;29;20119;-75
2023/07/30 06:29:36;;;;;;;4.30;3.90;;;;;;;;;;4932807;29;20047;-74
2023/07/30 06:32:02;;;;;;;7.65;3.15;;;;;;;;;;4931561;29;20032;-73
2023/07/30 06:34:28;;;;;;;4.13;3.75;;;;;;;;;;4932802;29;20091;-73
2023/07/30 06:36:54;;;;;;;4.10;3.80;;;;;;;;;;4933707;29;20039;-73
2023/07/30 06:39:21;;;;;;;3.97;3.67;;;;;;;;;;4938127;29;20035;-74
2023/07/30 06:41:47;;;;;;;3.67;3.33;;;;;;;;;;4933558;29;20079;-75
2023/07/30 06:44:13;;;;;;;4.50;3.30;;;;;;;;;;4934586;29;20027;-74
2023/07/30 06:46:39;;;;;;;4.00;3.70;;;;;;;;;;4942702;29;20122;-73
2023/07/30 06:49:05;;;;;;;3.40;3.10;;;;;;;;;;4933867;29;20130;-74
2023/07/30 06:51:31;;;;;;;5.00;3.30;;;;;;;;;;4950346;28;20185;-76
2023/07/30 06:53:57;;;;;;;5.50;3.50;;;;;;;;;;4936997;28;20047;-76
2023/07/30 06:56:24;;;;;;;7.40;3.95;;;;;;;;;;4930923;29;20035;-75
2023/07/30 06:58:49;;;;;;;2.70;2.50;;;;;;;;;;4931224;29;20047;-76
2023/07/30 07:01:15;;;;;;;3.28;2.97;;;;;;;;;;4932803;29;20138;-77
2023/07/30 07:03:42;;;;;;;2.80;2.60;;;;;;;;;;4932968;29;20035;-76
2023/07/30 07:06:07;;;;;;;4.05;3.40;;;;;;;;;;4931412;29;20410;-76
2023/07/30 07:08:33;;;;;;;3.10;2.90;;;;;;;;;;4932744;29;20118;-75
2023/07/30 07:11:00;;;;;;;3.00;2.75;;;;;;;;;;4932919;29;20075;-75
2023/07/30 07:13:26;;;;;;;3.38;3.15;;;;;;;;;;4932761;29;20095;-76
2023/07/30 07:15:52;;;;;;;3.22;2.67;;;;;;;;;;4932748;29;20481;-76
2023/07/30 07:18:18;;;;;;;3.63;3.38;;;;;;;;;;4932756;29;20522;-76
2023/07/30 07:20:44;;;;;;;5.38;2.78;;;;;;;;;;4932758;29;20040;-74
2023/07/30 07:23:10;;;;;;;4.18;2.55;;;;;;;;;;4932755;29;20039;-76
2023/07/30 07:25:37;;;;;;;4.00;2.50;;;;;;;;;;4932607;29;20679;-76
2023/07/30 07:28:04;;;;;;;5.82;2.78;;;;;;;;;;4932928;29;20043;-76
2023/07/30 07:30:30;;;;;;;2.50;1.85;;;;;;;;;;4932429;29;20040;-77
2023/07/30 07:32:56;;;;;;;4.88;2.70;;;;;;;;;;4931361;29;20043;-76
2023/07/30 07:35:22;;;;;;;2.13;1.92;;;;;;;;;;4932657;29;20103;-78
2023/07/30 07:37:48;;;;;;;4.53;2.00;;;;;;;;;;4932869;29;20039;-77
2023/07/30 07:40:14;;;;;;;2.70;2.50;;;;;;;;;;4932726;29;20028;-77
2023/07/30 07:42:40;;;;;;;2.88;2.40;;;;;;;;;;4947235;29;20035;-76
2023/07/30 07:45:08;;;;;;;3.70;2.72;;;;;;;;;;4931106;29;20541;-76
2023/07/30 07:47:34;;;;;;;6.72;2.58;;;;;;;;;;4932417;29;20035;-75
2023/07/30 07:50:00;;;;;;;7.40;2.30;;;;;;;;;;4932909;29;20047;-77
2023/07/30 07:52:26;;;;;;;2.97;2.50;;;;;;;;;;4936182;29;20036;-75
2023/07/30 07:54:52;;;;;;;6.22;2.75;;;;;;;;;;4936048;29;20569;-75
2023/07/30 07:57:18;;;;;;;4.75;2.75;;;;;;;;;;4935802;29;20115;-76
2023/07/30 07:59:45;;;;;;;2.90;2.63;;;;;;;;;;4936206;29;20499;-76
2023/07/30 08:02:12;;;;;;;2.45;2.25;;;;;;;;;;4935178;29;20043;-76
2023/07/30 08:04:38;;;;;;;2.45;2.25;;;;;;;;;;4935983;29;20071;-77
2023/07/30 08:07:05;;;;;;;2.65;2.03;;;;;;;;;;4935964;29;20044;-76
2023/07/30 08:09:31;;;;;;;3.15;2.30;;;;;;;;;;4935553;29;20032;-76
2023/07/30 08:11:57;;;;;;;3.70;3.00;;;;;;;;;;4935951;29;20050;-77
2023/07/30 08:14:22;;;;;;;2.55;2.35;;;;;;;;;;4935494;29;20042;-76
2023/07/30 08:16:49;;;;;;;3.88;2.78;;;;;;;;;;4935903;29;20039;-76
2023/07/30 08:19:15;;;;;;;2.58;2.20;;;;;;;;;;4935741;29;20028;-76
2023/07/30 08:21:41;;;;;;;8.63;3.03;;;;;;;;;;4950165;29;20545;-77
2023/07/30 08:24:07;;;;;;;3.83;2.58;;;;;;;;;;4935619;29;20040;-76
2023/07/30 08:26:33;;;;;;;2.63;1.92;;;;;;;;;;4935398;29;20127;-77
2023/07/30 08:28:59;;;;;;;2.67;2.05;;;;;;;;;;4950319;29;20395;-78
2023/07/30 08:31:26;;;;;;;3.25;2.45;;;;;;;;;;4935234;29;20055;-78
2023/07/30 08:33:52;;;;;;;4.25;2.45;;;;;;;;;;4934490;29;20410;-76
2023/07/30 08:36:19;;;;;;;2.92;2.17;;;;;;;;;;4935806;29;20051;-77
2023/07/30 08:38:45;;;;;;;2.60;2.40;;;;;;;;;;4935617;29;20024;-77
2023/07/30 08:41:11;;;;;;;2.15;2.03;;;;;;;;;;4935937;29;20171;-76
2023/07/30 08:43:37;;;;;;;3.45;2.30;;;;;;;;;;4934904;29;20481;-76
2023/07/30 08:46:03;;;;;;;3.45;2.08;;;;;;;;;;4937150;29;20587;-76
2023/07/30 08:48:29;;;;;;;2.40;2.20;;;;;;;;;;4938109;29;20080;-78
2023/07/30 08:50:57;;;;;;;2.20;2.00;;;;;;;;;;4946925;29;20100;-77
2023/07/30 08:53:24;;;;;;;2.13;2.03;;;;;;;;;;4945706;29;20031;-74
2023/07/30 08:55:50;;;;;;;2.65;2.30;;;;;;;;;;4935588;29;20070;-78
2023/07/30 08:58:17;;;;;;;3.10;2.40;;;;;;;;;;4935008;29;20063;-78
2023/07/30 09:00:42;;;;;;;2.10;2.00;;;;;;;;;;4933320;29;20075;-77
2023/07/30 09:03:08;;;;;;;2.72;1.90;;;;;;;;;;4934167;29;20035;-76
2023/07/30 09:05:35;;;;;;;2.50;2.30;;;;;;;;;;4934646;29;20044;-76
2023/07/30 09:08:01;;;;;;;3.70;2.80;;;;;;;;;;4934759;29;20035;-77
2023/07/30 09:10:27;;;;;;;2.83;2.28;;;;;;;;;;4934173;29;20059;-76
2023/07/30 09:12:54;;;;;;;2.60;2.40;;;;;;;;;;4934494;29;20549;-77
2023/07/30 09:15:21;;;;;;;3.83;2.75;;;;;;;;;;4934715;29;20384;-77
2023/07/30 09:17:48;;;;;;;8.70;2.58;;;;;;;;;;4933167;29;20039;-76
2023/07/30 09:20:14;;;;;;;5.68;2.83;;;;;;;;;;4934557;29;20047;-76
2023/07/30 09:22:40;;;;;;;3.00;2.50;;;;;;;;;;4934697;29;20036;-76
2023/07/30 09:25:06;;;;;;;7.00;2.88;;;;;;;;;;4934394;29;20079;-76
2023/07/30 09:27:33;;;;;;;4.95;2.63;;;;;;;;;;4933676;29;20073;-76
2023/07/30 09:29:59;;;;;;;4.68;2.58;;;;;;;;;;4934319;29;20047;-76
2023/07/30 09:32:26;;;;;;;7.57;2.92;;;;;;;;;;4933867;29;20032;-77
2023/07/30 09:34:52;;;;;;;4.88;1.90;;;;;;;;;;4934326;29;20411;-76
2023/07/30 09:37:18;;;;;;;2.15;2.05;;;;;;;;;;4934361;29;20039;-76
2023/07/30 09:39:44;;;;;;;3.90;3.55;;;;;;;;;;4935580;29;20042;-76
2023/07/30 09:42:10;;;;;;;4.97;2.20;;;;;;;;;;4937287;29;20035;-76
2023/07/30 09:44:38;;;;;;;5.53;2.33;;;;;;;;;;4934439;29;20032;-76
2023/07/30 09:47:05;;;;;;;2.40;2.20;;;;;;;;;;4934165;29;20118;-76
2023/07/30 09:49:31;;;;;;;4.57;2.40;;;;;;;;;;4933599;29;20043;-75
2023/07/30 09:51:57;;;;;;;2.22;2.03;;;;;;;;;;4932522;29;20138;-76
2023/07/30 09:54:24;;;;;;;4.90;2.28;;;;;;;;;;4933698;29;20043;-76
2023/07/30 09:56:50;;;;;;;5.13;4.03;;;;;;;;;;4948030;28;20066;-77
2023/07/30 09:59:16;;;;;;;6.32;2.70;;;;;;;;;;4933926;29;20035;-75
2023/07/30 10:01:55;;;;;;;3.67;2.22;;;;;;;;;;4933427;29;20042;-76
2023/07/30 10:04:21;;;;;;;2.72;2.50;;;;;;;;;;4933833;29;20039;-77
2023/07/30 10:06:50;;;;;;;1.60;1.50;;;;;;;;;;4933974;29;20546;-75
2023/07/30 10:09:17;;;;;;;3.15;1.60;;;;;;;;;;4933864;29;20131;-75
2023/07/30 10:11:43;;;;;;;6.35;2.15;;;;;;;;;;4931991;29;20086;-76
2023/07/30 10:14:09;;;;;;;5.78;2.25;;;;;;;;;;4933346;29;20048;-77
2023/07/30 10:16:36;;;;;;;2.38;2.17;;;;;;;;;;4933161;29;20040;-76
2023/07/30 10:19:02;;;;;;;2.03;1.88;;;;;;;;;;4932305;29;20486;-76
2023/07/30 10:21:31;;;;;;;3.58;2.40;;;;;;;;;;4933038;29;20418;-76
2023/07/30 10:24:01;;;;;;;3.42;2.22;;;;;;;;;;4933307;29;20463;-77
2023/07/30 10:26:28;;;;;;;1.88;1.77;;;;;;;;;;4948056;29;20035;-76
2023/07/30 10:29:09;;;;;;;2.20;2.00;;;;;;;;;;4936488;29;20047;-77
2023/07/30 10:31:39;;;;;;;3.38;2.53;;;;;;;;;;4939007;29;20083;-77
2023/07/30 10:34:05;;;;;;;;;;;;;;;;;;4934573;29;20062;-77
2023/07/30 10:36:32;;;;;;;4.72;2.13;;;;;;;;;;4933284;29;20381;-77
2023/07/30 10:39:18;;;;;;;4.68;2.53;;;;;;;;;;4933398;29;20043;-77
2023/07/30 10:41:44;;;;;;;2.70;2.50;;;;;;;;;;4931111;29;20043;-76
2023/07/30 10:44:18;;;;;;;4.05;2.60;;;;;;;;;;4933224;29;20387;-77
2023/07/30 10:46:44;;;;;;;3.85;2.13;;;;;;;;;;4932873;29;20047;-75
2023/07/30 10:49:12;;;;;;;4.90;2.30;;;;;;;;;;4932987;29;20032;-77
2023/07/30 10:51:38;;;;;;;5.35;2.20;;;;;;;;;;4932720;29;20526;-76
2023/07/30 10:54:05;;;;;;;2.45;2.25;;;;;;;;;;4931661;29;20027;-77
2023/07/30 10:56:31;;;;;;;3.30;2.55;;;;;;;;;;4932368;29;20067;-76
2023/07/30 10:58:57;;;;;;;4.70;2.65;;;;;;;;;;4931771;29;20047;-76
2023/07/30 11:01:26;;;;;;;3.20;2.00;;;;;;;;;;4933085;29;20126;-76
2023/07/30 11:03:52;;;;;;;3.28;2.10;;;;;;;;;;4932675;29;20135;-76
2023/07/30 11:06:21;;;;;;;2.10;1.90;;;;;;;;;;4932786;29;20095;-77
2023/07/30 11:08:48;;;;;;;4.00;2.20;;;;;;;;;;4933134;29;20036;-76
2023/07/30 11:11:13;;;;;;;3.70;2.10;;;;;;;;;;4932809;29;20059;-76
2023/07/30 11:13:40;;;;;;;2.25;2.13;;;;;;;;;;4932584;29;20491;-76
2023/07/30 11:16:07;;;;;;;4.57;2.28;;;;;;;;;;4932711;29;20067;-74
2023/07/30 11:18:34;;;;;;;2.13;2.00;;;;;;;;;;4931318;29;20458;-75
2023/07/30 11:21:03;;;;;;;2.70;1.80;;;;;;;;;;4932731;29;20135;-77
2023/07/30 11:23:29;;;;;;;2.28;2.10;;;;;;;;;;4931477;29;20111;-75
2023/07/30 11:25:55;;;;;;;2.42;2.22;;;;;;;;;;4934445;29;20120;-77
2023/07/30 11:28:31;;;;;;;7.38;2.35;;;;;;;;;;4935346;29;20054;-75
2023/07/30 11:31:04;;;;;;;9.25;2.50;;;;;;;;;;4935000;29;20078;-76
2023/07/30 11:33:31;;;;;;;4.60;2.80;;;;;;;;;;4936498;29;20115;-75
2023/07/30 11:35:57;;;;;;;4.22;2.17;;;;;;;;;;4934688;29;20122;-77
2023/07/30 11:38:26;;;;;;;3.47;2.10;;;;;;;;;;4935093;29;20036;-76
2023/07/30 11:40:52;;;;;;;2.67;2.43;;;;;;;;;;4936032;29;20039;-76
2023/07/30 11:43:18;;;;;;;2.40;2.17;;;;;;;;;;4935480;29;20302;-76
2023/07/30 11:45:44;;;;;;;3.70;2.20;;;;;;;;;;4936739;29;20040;-76
2023/07/30 11:48:10;;;;;;;2.45;2.25;;;;;;;;;;4935989;29;20578;-76
2023/07/30 11:50:46;;;;;;;2.75;2.28;;;;;;;;;;4942302;29;20059;-76
2023/07/30 11:53:12;;;;;;;2.28;2.05;;;;;;;;;;4964034;29;20103;-75
2023/07/30 11:55:38;;;;;;;2.30;2.20;;;;;;;;;;4942748;29;20078;-77
2023/07/30 11:58:05;;;;;;;2.65;2.10;;;;;;;;;;4934797;29;20964;-76
2023/07/30 12:00:31;;;;;;;3.10;2.20;;;;;;;;;;4934767;29;20040;-75
2023/07/30 12:03:01;;;;;;;6.05;4.65;;;;;;;;;;4935610;29;20032;-76
2023/07/30 12:05:34;;;;;;;2.38;2.17;;;;;;;;;;4934863;29;20042;-76
2023/07/30 12:08:03;;;;;;;2.92;2.20;;;;;;;;;;4935952;29;20090;-76
2023/07/30 12:11:01;;;;;;;2.83;2.28;;;;;;;;;;4936602;29;20047;-76
2023/07/30 12:13:27;;;;;;;3.00;2.35;;;;;;;;;;4913915;29;20075;-77
2023/07/30 12:15:53;;;;;;;2.13;2.03;;;;;;;;;;4935333;29;20062;-77
2023/07/30 12:18:19;;;;;;;2.72;2.20;;;;;;;;;;4934585;29;20036;-75
2023/07/30 12:20:46;;;;;;;1.75;1.65;;;;;;;;;;4935420;29;20126;-75
2023/07/30 12:23:12;;;;;;;3.72;2.15;;;;;;;;;;4935542;29;20040;-75
2023/07/30 12:25:38;;;;;;;2.22;2.03;;;;;;;;;;4934097;29;20599;-77
2023/07/30 12:28:04;;;;;;;1.90;1.80;;;;;;;;;;4938197;29;20167;-75
2023/07/30 12:30:30;;;;;;;1.88;1.52;;;;;;;;;;4940788;29;20224;-76
2023/07/30 12:32:56;;;;;;;3.08;2.88;;;;;;;;;;4935299;29;20042;-75
2023/07/30 12:35:23;;;;;;;3.92;2.53;;;;;;;;;;4935433;29;20099;-76
2023/07/30 12:37:49;;;;;;;2.30;2.20;;;;;;;;;;4934932;29;20510;-75
2023/07/30 12:40:15;;;;;;;2.28;2.17;;;;;;;;;;4935478;29;20054;-75
2023/07/30 12:42:41;;;;;;;5.07;2.20;;;;;;;;;;4935174;29;20059;-75
2023/07/30 12:45:07;;;;;;;2.30;2.10;;;;;;;;;;4935196;29;20573;-76
2023/07/30 12:47:35;;;;;;;2.15;1.90;;;;;;;;;;4935077;29;20035;-76
2023/07/30 12:50:01;;;;;;;1.80;1.70;;;;;;;;;;4934714;29;20058;-75
2023/07/30 12:52:31;;;;;;;1.40;1.40;;;;;;;;;;4933876;29;20032;-76
2023/07/30 12:54:58;;;;;;;5.88;2.13;;;;;;;;;;4933427;29;20047;-75
2023/07/30 12:57:24;;;;;;;2.20;2.05;;;;;;;;;;4934172;29;20099;-76
2023/07/30 12:59:49;;;;;;;2.42;2.10;;;;;;;;;;4933669;29;20046;-75
2023/07/30 13:02:15;;;;;;;2.50;2.20;;;;;;;;;;4932409;29;20043;-74
2023/07/30 13:04:41;;;;;;;2.50;2.30;;;;;;;;;;4933554;29;20040;-75
2023/07/30 13:07:07;;;;;;;2.15;2.05;;;;;;;;;;4933544;29;20051;-75
2023/07/30 13:09:34;;;;;;;3.25;2.40;;;;;;;;;;4933835;29;20031;-75
2023/07/30 13:12:00;;;;;;;2.78;2.50;;;;;;;;;;4934367;29;20451;-76
2023/07/30 13:14:26;;;;;;;3.55;2.47;;;;;;;;;;4933953;29;20047;-74
2023/07/30 13:16:52;;;;;;;3.08;1.85;;;;;;;;;;4933248;29;20459;-74
2023/07/30 13:19:18;;;;;;;6.55;3.05;;;;;;;;;;4933801;29;20124;-75
2023/07/30 13:21:44;;;;;;;4.88;2.40;;;;;;;;;;4932068;29;20505;-76
2023/07/30 13:24:10;;;;;;;3.90;2.70;;;;;;;;;;4933685;29;20503;-76
2023/07/30 13:26:36;;;;;;;3.45;2.28;;;;;;;;;;4933324;29;20039;-76
2023/07/30 13:29:02;;;;;;;3.33;2.35;;;;;;;;;;4933242;29;20046;-75
2023/07/30 13:31:28;;;;;;;2.20;2.00;;;;;;;;;;4931880;29;20138;-75
2023/07/30 13:33:54;;;;;;;2.97;2.30;;;;;;;;;;4933155;29;20042;-74
2023/07/30 13:36:20;;;;;;;3.85;2.10;;;;;;;;;;4933272;29;20040;-77
2023/07/30 13:38:46;;;;;;;2.50;2.30;;;;;;;;;;4931700;29;20044;-76
2023/07/30 13:41:12;;;;;;;2.67;2.47;;;;;;;;;;4933278;29;20052;-75
2023/07/30 13:43:38;;;;;;;3.40;2.15;;;;;;;;;;4933379;29;20040;-75
2023/07/30 13:46:04;;;;;;;2.85;2.20;;;;;;;;;;4932779;29;20032;-76
2023/07/30 13:48:30;;;;;;;2.60;2.40;;;;;;;;;;4932372;29;20047;-76
2023/07/30 13:50:57;;;;;;;3.55;2.30;;;;;;;;;;4931591;29;20043;-76
2023/07/30 13:53:23;;;;;;;1.80;1.70;;;;;;;;;;4933042;29;20160;-76
2023/07/30 13:55:49;;;;;;;7.40;1.80;;;;;;;;;;4932512;29;20042;-75
2023/07/30 13:58:15;;;;;;;1.90;1.80;;;;;;;;;;4933457;29;20060;-75
2023/07/30 14:00:44;;;;;;;2.10;1.90;;;;;;;;;;4933484;29;20036;-76
2023/07/30 14:03:11;;;;;;;2.75;2.20;;;;;;;;;;4933818;29;20042;-76
2023/07/30 14:05:37;;;;;;;4.28;2.00;;;;;;;;;;4933925;29;20494;-76
2023/07/30 14:08:03;;;;;;;2.65;2.10;;;;;;;;;;4933342;29;20039;-75
2023/07/30 14:10:29;;;;;;;3.60;1.80;;;;;;;;;;4933504;29;20058;-75
2023/07/30 14:12:55;;;;;;;3.58;2.08;;;;;;;;;;4916991;29;20035;-75
2023/07/30 14:15:22;;;;;;;2.10;1.90;;;;;;;;;;4948389;29;20042;-75
2023/07/30 14:17:48;;;;;;;3.92;2.15;;;;;;;;;;4933083;29;20031;-75
2023/07/30 14:20:14;;;;;;;5.45;1.80;;;;;;;;;;4916538;29;20035;-74
2023/07/30 14:22:40;;;;;;;2.20;1.90;;;;;;;;;;4933200;29;20043;-76
2023/07/30 14:25:06;;;;;;;1.98;1.88;;;;;;;;;;4933146;29;20066;-77
2023/07/30 14:27:32;;;;;;;2.00;1.90;;;;;;;;;;4933001;29;20122;-75
2023/07/30 14:29:58;;;;;;;2.10;2.00;;;;;;;;;;4931841;29;20443;-75
2023/07/30 14:32:24;;;;;;;1.80;1.70;;;;;;;;;;4933018;29;20048;-75
2023/07/30 14:34:50;;;;;;;2.97;2.00;;;;;;;;;;4933124;29;20063;-77